createdAt,value
2022-12-19T00:00:31.318Z,7.47
2022-12-19T00:02:59.476Z,7.50
2022-12-19T00:05:27.786Z,8.83
2022-12-19T00:07:55.750Z,6.40
2022-12-19T00:10:25.280Z,6.80
2022-12-19T00:12:53.334Z,6.37
2022-12-19T00:15:22.694Z,7.20
2022-12-19T00:17:50.778Z,6.30
2022-12-19T00:20:19.197Z,8.40
2022-12-19T00:22:47.401Z,10.20
2022-12-19T00:25:18.294Z,7.53
2022-12-19T00:27:47.201Z,7.60
2022-12-19T00:30:15.608Z,6.43
2022-12-19T00:32:45.552Z,8.63
2022-12-19T00:35:13.544Z,8.17
2022-12-19T00:37:49.323Z,7.33
2022-12-19T00:40:17.781Z,7.60
2022-12-19T00:42:51.712Z,7.40
2022-12-19T00:45:21.564Z,7.27
2022-12-19T00:47:51.344Z,7.40
2022-12-19T00:50:19.603Z,7.07
2022-12-19T00:52:47.625Z,9.17
2022-12-19T00:55:19.359Z,6.50
2022-12-19T00:57:48.381Z,6.93
2022-12-19T01:00:18.185Z,7.70
2022-12-19T01:02:46.420Z,6.60
2022-12-19T01:05:16.274Z,6.20
2022-12-19T01:07:44.295Z,7.20
2022-12-19T01:10:12.509Z,7.23
2022-12-19T01:12:48.746Z,5.47
2022-12-19T01:15:20.857Z,6.57
2022-12-19T01:17:49.723Z,6.43
2022-12-19T01:20:29.756Z,7.03
2022-12-19T01:23:00.308Z,6.43
2022-12-19T01:25:29.643Z,5.83
2022-12-19T01:27:58.034Z,5.73
2022-12-19T01:30:26.503Z,5.50
2022-12-19T01:32:56.869Z,6.20
2022-12-19T01:35:27.248Z,4.60
2022-12-19T01:37:57.500Z,5.67
2022-12-19T01:40:37.341Z,5.03
2022-12-19T01:43:06.303Z,5.33
2022-12-19T01:45:38.407Z,5.70
2022-12-19T01:48:19.274Z,5.63
2022-12-19T01:51:02.078Z,5.70
2022-12-19T01:53:34.536Z,6.17
2022-12-19T01:56:10.472Z,5.43
2022-12-19T01:58:42.507Z,4.93
2022-12-19T02:01:11.056Z,4.83
2022-12-19T02:03:40.768Z,6.10
2022-12-19T02:06:11.341Z,5.37
2022-12-19T02:08:41.144Z,5.57
2022-12-19T02:11:09.141Z,6.07
2022-12-19T02:13:39.490Z,5.30
2022-12-19T02:16:17.785Z,4.50
2022-12-19T02:18:55.918Z,5.97
2022-12-19T02:21:32.315Z,5.87
2022-12-19T02:24:30.411Z,5.70
2022-12-19T02:27:40.384Z,5.60
2022-12-19T02:30:14.634Z,5.80
2022-12-19T02:32:57.107Z,5.40
2022-12-19T02:35:32.221Z,4.10
2022-12-19T02:38:12.231Z,5.20
2022-12-19T02:40:45.622Z,5.27
2022-12-19T02:43:17.114Z,5.70
2022-12-19T02:45:47.669Z,5.00
2022-12-19T02:48:19.431Z,5.67
2022-12-19T02:50:50.527Z,5.53
2022-12-19T02:53:22.433Z,5.50
2022-12-19T02:56:10.419Z,5.37
2022-12-19T02:58:51.400Z,5.40
2022-12-19T03:01:33.485Z,5.30
2022-12-19T03:04:15.953Z,4.83
2022-12-19T03:06:49.481Z,4.87
2022-12-19T03:09:22.936Z,5.00
2022-12-19T03:11:56.042Z,5.77
2022-12-19T03:14:24.962Z,5.80
2022-12-19T03:16:53.390Z,5.67
2022-12-19T03:19:24.019Z,4.83
2022-12-19T03:21:52.973Z,5.03
2022-12-19T03:24:21.608Z,5.23
2022-12-19T03:26:55.796Z,5.33
2022-12-19T03:29:29.517Z,4.63
2022-12-19T03:32:00.599Z,4.63
2022-12-19T03:34:33.049Z,4.60
2022-12-19T03:37:04.351Z,4.33
2022-12-19T03:39:33.831Z,5.50
2022-12-19T03:42:21.211Z,4.97
2022-12-19T03:44:52.175Z,6.10
2022-12-19T03:47:25.124Z,5.50
2022-12-19T03:49:54.926Z,4.87
2022-12-19T03:52:29.626Z,5.20
2022-12-19T03:55:05.537Z,4.90
2022-12-19T03:57:39.037Z,5.23
2022-12-19T04:00:09.915Z,5.37
2022-12-19T04:02:40.108Z,5.17
2022-12-19T04:05:12.751Z,5.20
2022-12-19T04:07:41.897Z,5.27
2022-12-19T04:10:13.180Z,4.93
2022-12-19T04:12:48.632Z,5.10
2022-12-19T04:15:17.425Z,5.43
2022-12-19T04:17:50.364Z,5.07
2022-12-19T04:20:22.477Z,4.53
2022-12-19T04:22:55.233Z,5.27
2022-12-19T04:25:29.630Z,4.93
2022-12-19T04:28:04.256Z,4.77
2022-12-19T04:30:36.773Z,4.77
2022-12-19T04:33:05.508Z,5.83
2022-12-19T04:35:38.130Z,4.63
2022-12-19T04:38:06.171Z,5.07
2022-12-19T04:40:40.821Z,5.53
2022-12-19T04:43:10.063Z,4.47
2022-12-19T04:45:38.283Z,4.53
2022-12-19T04:48:07.643Z,4.83
2022-12-19T04:50:38.572Z,5.30
2022-12-19T04:53:07.956Z,4.63
2022-12-19T04:55:36.194Z,4.30
2022-12-19T04:58:06.262Z,5.23
2022-12-19T05:00:34.836Z,4.57
2022-12-19T05:03:03.078Z,4.93
2022-12-19T05:05:31.232Z,5.43
2022-12-19T05:08:01.077Z,4.40
2022-12-19T05:10:29.361Z,4.90
2022-12-19T05:12:57.410Z,5.00
2022-12-19T05:15:25.414Z,4.87
2022-12-19T05:17:53.474Z,4.20
2022-12-19T05:20:21.531Z,4.97
2022-12-19T05:22:49.628Z,4.80
2022-12-19T05:25:19.543Z,5.10
2022-12-19T05:27:47.582Z,5.17
2022-12-19T05:30:15.900Z,4.33
2022-12-19T05:32:43.957Z,5.03
2022-12-19T05:35:12.314Z,5.10
2022-12-19T05:37:40.326Z,4.50
2022-12-19T05:40:10.629Z,4.17
2022-12-19T05:42:40.067Z,5.53
2022-12-19T05:45:09.545Z,4.53
2022-12-19T05:47:38.181Z,5.57
2022-12-19T05:50:07.063Z,5.07
2022-12-19T05:52:35.093Z,5.10
2022-12-19T05:55:03.233Z,4.57
2022-12-19T05:57:31.253Z,4.70
2022-12-19T06:00:00.985Z,4.07
2022-12-19T06:02:32.933Z,5.27
2022-12-19T06:05:01.311Z,5.17
2022-12-19T06:07:29.915Z,5.00
2022-12-19T06:09:58.346Z,5.30
2022-12-19T06:12:26.407Z,5.20
2022-12-19T06:14:54.812Z,4.43
2022-12-19T06:17:24.684Z,5.70
2022-12-19T06:19:52.699Z,4.43
2022-12-19T06:22:20.727Z,4.60
2022-12-19T06:24:48.801Z,5.30
2022-12-19T06:27:17.029Z,4.77
2022-12-19T06:29:45.027Z,4.90
2022-12-19T06:32:13.074Z,4.57
2022-12-19T06:37:30.846Z,5.03
2022-12-19T06:39:59.278Z,5.37
2022-12-19T06:42:26.548Z,4.83
2022-12-19T06:44:56.484Z,4.87
2022-12-19T06:47:25.624Z,5.10
2022-12-19T06:49:55.359Z,5.30
2022-12-19T06:52:23.431Z,4.97
2022-12-19T06:54:51.761Z,5.13
2022-12-19T06:57:19.908Z,5.20
2022-12-19T06:59:47.994Z,5.10
2022-12-19T07:02:26.481Z,5.73
2022-12-19T07:05:02.970Z,4.37
2022-12-19T07:07:31.644Z,4.80
2022-12-19T07:10:00.227Z,5.70
2022-12-19T07:12:28.244Z,5.13
2022-12-19T07:14:56.328Z,4.90
2022-12-19T07:17:25.472Z,4.80
2022-12-19T07:19:55.508Z,4.68
2022-12-19T07:22:26.117Z,5.00
2022-12-19T07:24:55.241Z,5.40
2022-12-19T07:27:23.629Z,5.22
2022-12-19T07:29:51.694Z,5.23
2022-12-19T07:32:19.694Z,4.80
2022-12-19T07:34:48.064Z,5.30
2022-12-19T07:37:16.459Z,4.80
2022-12-19T07:39:46.298Z,5.00
2022-12-19T07:42:14.656Z,4.82
2022-12-19T07:44:42.727Z,5.50
2022-12-19T07:47:11.149Z,5.53
2022-12-19T07:49:39.393Z,5.53
2022-12-19T07:52:08.491Z,7.10
2022-12-19T07:54:36.999Z,6.50
2022-12-19T07:57:06.446Z,5.68
2022-12-19T07:59:38.881Z,5.32
2022-12-19T08:02:08.015Z,9.10
2022-12-19T08:04:36.805Z,8.20
2022-12-19T08:07:05.184Z,8.32
2022-12-19T08:09:33.492Z,7.63
2022-12-19T08:12:01.486Z,7.10
2022-12-19T08:14:30.883Z,7.45
2022-12-19T08:19:47.169Z,6.40
2022-12-19T08:22:15.380Z,7.95
2022-12-19T08:24:43.488Z,7.30
2022-12-19T08:27:11.890Z,8.02
2022-12-19T08:29:41.317Z,7.63
2022-12-19T08:32:09.372Z,8.10
2022-12-19T08:34:37.389Z,8.15
2022-12-19T08:37:05.809Z,8.55
2022-12-19T08:39:33.837Z,7.60
2022-12-19T08:42:02.960Z,8.05
2022-12-19T08:44:31.046Z,7.22
2022-12-19T08:47:00.959Z,8.60
2022-12-19T08:49:29.384Z,8.15
2022-12-19T08:51:57.413Z,8.48
2022-12-19T08:54:25.527Z,8.23
2022-12-19T08:56:53.591Z,8.13
2022-12-19T08:59:26.809Z,8.10
2022-12-19T09:02:02.228Z,8.15
2022-12-19T09:06:01.765Z,8.23
2022-12-19T09:07:19.424Z,8.13
2022-12-19T09:09:47.488Z,8.82
2022-12-19T09:12:17.486Z,8.27
2022-12-19T09:14:45.643Z,7.63
2022-12-19T09:17:15.101Z,7.53
2022-12-19T09:19:44.145Z,7.40
2022-12-19T09:22:16.611Z,9.68
2022-12-19T09:24:44.692Z,7.28
2022-12-19T09:27:12.803Z,7.30
2022-12-19T09:29:42.590Z,6.90
2022-12-19T09:32:10.696Z,7.82
2022-12-19T09:34:40.091Z,8.85
2022-12-19T09:37:16.178Z,7.43
2022-12-19T09:39:46.318Z,8.18
2022-12-19T09:42:46.863Z,6.25
2022-12-19T09:45:31.821Z,8.23
2022-12-19T09:48:02.918Z,8.45
2022-12-19T09:50:43.278Z,10.27
2022-12-19T09:53:18.862Z,8.93
2022-12-19T09:55:48.913Z,8.07
2022-12-19T09:58:27.950Z,7.97
2022-12-19T10:01:00.102Z,8.15
2022-12-19T10:03:32.342Z,9.52
2022-12-19T10:07:13.981Z,9.60
2022-12-19T10:10:55.527Z,7.93
2022-12-19T10:12:38.176Z,10.00
2022-12-19T10:15:18.953Z,8.50
2022-12-19T10:18:12.815Z,8.13
2022-12-19T10:20:46.196Z,9.45
2022-12-19T10:23:29.497Z,10.38
2022-12-19T10:26:01.342Z,8.70
2022-12-19T10:28:47.758Z,8.60
2022-12-19T10:31:22.234Z,8.93
2022-12-19T10:33:57.352Z,6.70
2022-12-19T10:36:48.621Z,7.30
2022-12-19T10:39:22.209Z,8.57
2022-12-19T10:41:55.732Z,9.32
2022-12-19T10:44:27.978Z,7.03
2022-12-19T10:46:56.088Z,8.70
2022-12-19T10:49:27.679Z,7.43
2022-12-19T10:52:00.737Z,6.20
2022-12-19T10:54:41.933Z,8.40
2022-12-19T10:57:25.333Z,8.27
2022-12-19T10:59:59.226Z,7.93
2022-12-19T11:02:42.125Z,8.60
2022-12-19T11:05:25.300Z,7.35
2022-12-19T11:08:03.296Z,8.80
2022-12-19T11:13:17.614Z,9.98
2022-12-19T11:18:38.520Z,7.40
2022-12-19T11:24:30.048Z,7.40
2022-12-19T11:29:27.535Z,6.22
2022-12-19T11:30:09.324Z,7.28
2022-12-19T11:30:21.353Z,7.75
2022-12-19T11:30:35.951Z,7.93
2022-12-19T11:34:05.541Z,7.38
2022-12-19T11:36:38.624Z,7.13
2022-12-19T11:39:13.575Z,7.72
2022-12-19T11:41:48.006Z,5.45
2022-12-19T11:44:27.769Z,6.82
2022-12-19T11:47:04.406Z,6.88
2022-12-19T11:49:38.296Z,6.32
2022-12-19T11:52:54.086Z,6.47
2022-12-19T11:55:09.117Z,6.45
2022-12-19T11:57:39.504Z,6.85
2022-12-19T12:00:14.311Z,8.32
2022-12-19T12:03:08.248Z,5.80
2022-12-19T12:05:44.924Z,7.05
2022-12-19T12:11:29.961Z,7.57
2022-12-19T12:16:33.654Z,9.07
2022-12-19T12:24:11.514Z,8.35
2022-12-19T12:31:01.330Z,7.78
2022-12-19T12:31:07.690Z,7.05
2022-12-19T12:31:16.640Z,8.63
2022-12-19T12:31:45.126Z,7.00
2022-12-19T12:31:52.579Z,8.15
2022-12-19T12:35:34.427Z,7.45
2022-12-19T12:38:35.218Z,6.50
2022-12-19T12:41:18.159Z,6.28
2022-12-19T12:43:57.626Z,7.70
2022-12-19T12:46:30.112Z,7.68
2022-12-19T12:49:03.959Z,6.72
2022-12-19T12:51:34.646Z,5.78
2022-12-19T12:54:07.988Z,7.38
2022-12-19T12:56:37.758Z,3.88
2022-12-19T12:59:21.112Z,6.90
2022-12-19T13:01:54.672Z,6.93
2022-12-19T13:04:31.697Z,5.20
2022-12-19T13:07:21.292Z,3.47
2022-12-19T13:09:56.068Z,3.22
2022-12-19T13:12:45.178Z,4.38
2022-12-19T13:15:41.449Z,5.60
2022-12-19T13:18:34.394Z,4.82
2022-12-19T13:21:08.669Z,5.55
2022-12-19T13:24:15.901Z,4.50
2022-12-19T13:26:52.708Z,5.57
2022-12-19T13:29:30.058Z,6.72
2022-12-19T13:32:15.932Z,4.38
2022-12-19T13:35:36.873Z,6.30
2022-12-19T13:39:48.418Z,5.82
2022-12-19T13:40:56.674Z,5.07
2022-12-19T13:43:48.308Z,6.63
2022-12-19T13:46:33.752Z,4.10
2022-12-19T13:49:07.307Z,6.57
2022-12-19T13:51:48.795Z,6.05
2022-12-19T13:54:26.922Z,5.80
2022-12-19T13:56:57.187Z,5.70
2022-12-19T13:59:28.140Z,6.03
2022-12-19T14:01:56.768Z,6.25
2022-12-19T14:04:30.431Z,6.38
2022-12-19T14:07:02.391Z,6.57
2022-12-19T14:11:27.066Z,6.10
2022-12-19T14:13:54.869Z,6.18
2022-12-19T14:15:45.883Z,6.93
2022-12-19T14:18:44.776Z,8.02
2022-12-19T14:22:04.313Z,8.75
2022-12-19T14:24:12.850Z,7.55
2022-12-19T14:28:25.153Z,7.90
2022-12-19T14:30:28.572Z,7.60
2022-12-19T14:33:44.637Z,8.15
2022-12-19T14:36:12.464Z,7.78
2022-12-19T14:39:24.875Z,6.47
2022-12-19T14:41:09.562Z,5.03
2022-12-19T14:43:58.988Z,7.95
2022-12-19T14:53:52.729Z,6.10
2022-12-19T14:54:10.123Z,5.07
2022-12-19T14:54:40.045Z,6.90
2022-12-19T14:56:16.161Z,6.35
2022-12-19T14:58:55.710Z,6.15
2022-12-19T15:01:24.983Z,6.50
2022-12-19T15:04:53.256Z,5.57
2022-12-19T15:07:07.750Z,6.35
2022-12-19T15:10:58.826Z,6.38
2022-12-19T15:14:49.312Z,8.20
2022-12-19T15:15:46.039Z,6.60
2022-12-19T15:18:25.150Z,3.22
2022-12-19T15:20:55.857Z,6.22
2022-12-19T15:23:24.703Z,5.82
2022-12-19T15:26:09.492Z,6.90
2022-12-19T15:28:43.262Z,3.83
2022-12-19T15:31:29.859Z,6.72
2022-12-19T15:34:34.278Z,8.05
2022-12-19T15:36:47.989Z,7.25
2022-12-19T15:39:16.523Z,6.97
2022-12-19T15:41:46.206Z,6.28
2022-12-19T15:44:19.297Z,5.97
2022-12-19T15:46:49.374Z,5.85
2022-12-19T15:49:21.811Z,6.30
2022-12-19T15:51:52.394Z,6.63
2022-12-19T15:57:21.050Z,6.18
2022-12-19T15:59:49.571Z,6.18
2022-12-19T16:02:21.459Z,6.43
2022-12-19T16:04:56.880Z,6.05
2022-12-19T16:07:30.824Z,7.43
2022-12-19T16:09:58.902Z,2.70
2022-12-19T16:12:35.664Z,6.45
2022-12-19T16:15:05.187Z,7.13
2022-12-19T16:17:34.393Z,6.18
2022-12-19T16:20:03.917Z,6.95
2022-12-19T16:22:32.119Z,6.18
2022-12-19T16:25:00.211Z,6.95
2022-12-19T16:27:30.106Z,6.93
2022-12-19T16:30:04.189Z,5.55
2022-12-19T16:32:32.388Z,6.05
2022-12-19T16:35:00.433Z,1.20
2022-12-19T16:37:32.379Z,5.38
2022-12-19T16:40:02.371Z,5.32
2022-12-19T16:42:31.393Z,5.80
2022-12-19T16:44:59.602Z,6.90
2022-12-19T16:47:27.780Z,6.82
2022-12-19T16:49:56.279Z,3.97
2022-12-19T16:52:24.881Z,6.85
2022-12-19T16:54:54.625Z,3.58
2022-12-19T16:57:23.809Z,6.38
2022-12-19T16:59:52.247Z,6.40
2022-12-19T17:02:43.697Z,4.40
2022-12-19T17:05:21.191Z,6.43
2022-12-19T17:07:50.278Z,5.57
2022-12-19T17:10:26.177Z,3.28
2022-12-19T17:12:55.759Z,3.42
2022-12-19T17:15:27.715Z,5.60
2022-12-19T17:17:58.786Z,5.30
2022-12-19T17:20:29.738Z,3.45
2022-12-19T17:22:58.080Z,5.65
2022-12-19T17:25:28.852Z,5.53
2022-12-19T17:27:57.505Z,5.20
2022-12-19T17:30:26.043Z,5.38
2022-12-19T17:32:55.950Z,5.25
2022-12-19T17:35:33.182Z,2.58
2022-12-19T17:38:01.525Z,2.53
2022-12-19T17:40:34.493Z,2.78
2022-12-19T17:43:03.435Z,3.97
2022-12-19T17:45:33.959Z,3.65
2022-12-19T17:48:05.806Z,4.70
2022-12-19T17:50:41.371Z,4.07
2022-12-19T17:53:14.326Z,3.95
2022-12-19T17:55:44.202Z,4.72
2022-12-19T17:58:12.475Z,4.75
2022-12-19T18:00:41.852Z,4.30
2022-12-19T18:03:19.840Z,4.78
2022-12-19T18:05:48.647Z,5.03
2022-12-19T18:08:24.566Z,3.53
2022-12-19T18:10:56.585Z,5.15
2022-12-19T18:13:25.691Z,3.53
2022-12-19T18:15:57.085Z,6.30
2022-12-19T18:18:29.691Z,5.05
2022-12-19T18:20:59.989Z,3.92
2022-12-19T18:23:30.433Z,3.00
2022-12-19T18:26:02.317Z,4.55
2022-12-19T18:28:31.506Z,5.05
2022-12-19T18:31:02.598Z,4.93
2022-12-19T18:33:37.710Z,5.25
2022-12-19T18:36:07.287Z,5.20
2022-12-19T18:38:35.510Z,5.10
2022-12-19T18:41:05.172Z,4.75
2022-12-19T18:43:33.670Z,4.93
2022-12-19T18:46:01.917Z,5.22
2022-12-19T18:48:33.201Z,5.07
2022-12-19T18:51:02.324Z,5.50
2022-12-19T18:53:35.135Z,4.70
2022-12-19T18:56:06.980Z,5.65
2022-12-19T18:58:35.665Z,5.82
2022-12-19T19:01:05.089Z,5.03
2022-12-19T19:03:35.524Z,5.75
2022-12-19T19:06:05.761Z,5.93
2022-12-19T19:08:35.444Z,4.22
2022-12-19T19:11:05.116Z,4.53
2022-12-19T19:13:33.195Z,2.83
2022-12-19T19:16:02.900Z,4.05
2022-12-19T19:18:34.610Z,4.30
2022-12-19T19:21:03.502Z,4.75
2022-12-19T19:23:37.497Z,5.13
2022-12-19T19:26:08.315Z,5.28
2022-12-19T19:28:37.376Z,4.90
2022-12-19T19:31:09.380Z,4.95
2022-12-19T19:33:40.984Z,5.07
2022-12-19T19:36:12.760Z,4.28
2022-12-19T19:38:42.602Z,4.47
2022-12-19T19:41:12.697Z,4.90
2022-12-19T19:43:41.716Z,4.00
2022-12-19T19:46:10.444Z,4.25
2022-12-19T19:48:38.624Z,3.90
2022-12-19T19:51:06.963Z,4.97
2022-12-19T19:53:36.371Z,4.60
2022-12-19T19:56:05.255Z,5.10
2022-12-19T19:58:34.910Z,2.38
2022-12-19T20:01:08.639Z,4.55
2022-12-19T20:03:37.161Z,4.88
2022-12-19T20:06:05.882Z,5.30
2022-12-19T20:08:39.657Z,4.72
2022-12-19T20:11:11.106Z,4.38
2022-12-19T20:13:40.659Z,5.30
2022-12-19T20:16:11.808Z,4.40
2022-12-19T20:18:41.182Z,3.97
2022-12-19T20:21:13.156Z,1.98
2022-12-19T20:23:43.977Z,4.43
2022-12-19T20:26:13.465Z,3.95
2022-12-19T20:28:48.544Z,3.60
2022-12-19T20:31:18.522Z,4.03
2022-12-19T20:33:47.330Z,5.55
2022-12-19T20:36:15.745Z,2.63
2022-12-19T20:38:43.932Z,4.45
2022-12-19T20:41:12.328Z,4.32
2022-12-19T20:43:40.426Z,3.97
2022-12-19T20:46:12.363Z,3.10
2022-12-19T20:48:40.874Z,3.92
2022-12-19T20:51:10.049Z,5.05
2022-12-19T20:53:39.206Z,5.72
2022-12-19T20:56:09.427Z,4.60
2022-12-19T20:58:39.090Z,1.95
2022-12-19T21:01:10.343Z,3.95
2022-12-19T21:03:39.602Z,4.55
2022-12-19T21:06:09.634Z,4.82
2022-12-19T21:08:38.631Z,3.53
2022-12-19T21:11:08.544Z,4.75
2022-12-19T21:13:37.686Z,3.35
2022-12-19T21:16:08.761Z,3.15
2022-12-19T21:18:39.608Z,4.55
2022-12-19T21:21:09.217Z,3.00
2022-12-19T21:23:37.322Z,2.28
2022-12-19T21:26:05.900Z,4.25
2022-12-19T21:28:35.189Z,4.30
2022-12-19T21:31:05.854Z,3.75
2022-12-19T21:33:34.757Z,2.97
2022-12-19T21:36:12.439Z,4.35
2022-12-19T21:38:41.254Z,5.70
2022-12-19T21:41:09.860Z,4.30
2022-12-19T21:43:38.542Z,4.90
2022-12-19T21:46:11.239Z,3.78
2022-12-19T21:48:41.218Z,4.20
2022-12-19T21:51:12.184Z,4.85
2022-12-19T21:53:41.113Z,3.22
2022-12-19T21:56:19.468Z,3.33
2022-12-19T21:58:47.631Z,4.13
2022-12-19T22:01:15.877Z,5.15
2022-12-19T22:03:44.104Z,3.75
2022-12-19T22:06:25.661Z,2.08
2022-12-19T22:08:56.170Z,5.43
2022-12-19T22:11:24.960Z,4.28
2022-12-19T22:13:53.634Z,4.72
2022-12-19T22:16:22.173Z,4.60
2022-12-19T22:18:51.361Z,3.75
2022-12-19T22:21:22.360Z,4.03
2022-12-19T22:23:50.570Z,5.47
2022-12-19T22:26:20.315Z,4.28
2022-12-19T22:28:50.697Z,2.40
2022-12-19T22:31:21.268Z,2.67
2022-12-19T22:33:51.262Z,5.57
2022-12-19T22:36:27.585Z,2.25
2022-12-19T22:38:55.932Z,2.80
2022-12-19T22:41:24.061Z,2.70
2022-12-19T22:43:53.086Z,3.92
2022-12-19T22:46:23.561Z,4.32
2022-12-19T22:48:52.034Z,4.70
2022-12-19T22:51:21.700Z,3.58
2022-12-19T22:53:50.534Z,5.32
2022-12-19T22:56:20.043Z,4.88
2022-12-19T22:58:50.457Z,5.80
2022-12-19T23:01:22.091Z,4.70
2022-12-19T23:03:51.797Z,4.95
2022-12-19T23:06:23.131Z,4.47
2022-12-19T23:08:51.442Z,5.15
2022-12-19T23:11:21.567Z,4.05
2022-12-19T23:13:50.655Z,4.60
2022-12-19T23:16:19.303Z,3.70
2022-12-19T23:18:47.397Z,4.78
2022-12-19T23:21:18.464Z,4.40
2022-12-19T23:23:49.834Z,4.25
2022-12-19T23:26:20.391Z,4.80
2022-12-19T23:28:53.233Z,3.65
2022-12-19T23:31:21.466Z,5.15
2022-12-19T23:33:50.187Z,2.28
2022-12-19T23:36:32.354Z,4.93
2022-12-19T23:39:08.523Z,4.38
2022-12-19T23:41:36.573Z,4.88
2022-12-19T23:44:05.358Z,4.15
2022-12-19T23:46:33.699Z,4.80
2022-12-19T23:49:01.849Z,3.72
2022-12-19T23:51:30.614Z,3.72
2022-12-19T23:53:58.852Z,2.65
2022-12-19T23:56:30.313Z,4.57
2022-12-19T23:58:58.722Z,3.95
